sensor_id;sensor_type;location;lat;lon;timestamp;pressure;altitude;pressure_sealevel;temperature;humidity
62103;BME280;48077;48.104;11.702;2023-09-07T00:01:31;95859.66;;;12.10;100.00
62103;BME280;48077;48.104;11.702;2023-09-07T00:07:40;95860.69;;;12.09;100.00
62103;BME280;48077;48.104;11.702;2023-09-07T00:10:04;95855.56;;;12.08;100.00
62103;BME280;48077;48.104;11.702;2023-09-07T00:12:28;95845.69;;;12.08;100.00
62103;BME280;48077;48.104;11.702;2023-09-07T00:14:55;95847.66;;;12.13;100.00
62103;BME280;48077;48.104;11.702;2023-09-07T00:17:18;95847.31;;;12.09;100.00
62103;BME280;48077;48.104;11.702;2023-09-07T00:19:42;95862.41;;;12.15;100.00
62103;BME280;48077;48.104;11.702;2023-09-07T00:22:05;95846.84;;;12.12;100.00
62103;BME280;48077;48.104;11.702;2023-09-07T00:24:30;95841.59;;;12.06;100.00
62103;BME280;48077;48.104;11.702;2023-09-07T00:26:54;95848.00;;;12.05;100.00
62103;BME280;48077;48.104;11.702;2023-09-07T00:29:17;95838.34;;;12.04;100.00
62103;BME280;48077;48.104;11.702;2023-09-07T00:31:41;95839.19;;;12.04;100.00
62103;BME280;48077;48.104;11.702;2023-09-07T00:34:05;95839.50;;;12.08;100.00
62103;BME280;48077;48.104;11.702;2023-09-07T00:36:28;95840.00;;;12.05;100.00
62103;BME280;48077;48.104;11.702;2023-09-07T00:38:52;95841.38;;;12.07;100.00
62103;BME280;48077;48.104;11.702;2023-09-07T00:41:15;95839.41;;;12.03;100.00
62103;BME280;48077;48.104;11.702;2023-09-07T00:43:38;95841.97;;;11.98;100.00
62103;BME280;48077;48.104;11.702;2023-09-07T00:46:04;95836.50;;;11.92;100.00
62103;BME280;48077;48.104;11.702;2023-09-07T00:48:27;95850.78;;;11.86;100.00
62103;BME280;48077;48.104;11.702;2023-09-07T00:50:50;95846.56;;;11.79;100.00
62103;BME280;48077;48.104;11.702;2023-09-07T00:53:16;95848.53;;;11.83;100.00
62103;BME280;48077;48.104;11.702;2023-09-07T00:55:41;95854.38;;;11.80;100.00
62103;BME280;48077;48.104;11.702;2023-09-07T00:58:04;95847.41;;;11.79;100.00
62103;BME280;48077;48.104;11.702;2023-09-07T01:00:28;95842.16;;;11.72;100.00
62103;BME280;48077;48.104;11.702;2023-09-07T01:02:51;95849.94;;;11.74;100.00
62103;BME280;48077;48.104;11.702;2023-09-07T01:05:14;95831.47;;;11.61;100.00
62103;BME280;48077;48.104;11.702;2023-09-07T01:07:43;95841.25;;;11.67;100.00
62103;BME280;48077;48.104;11.702;2023-09-07T01:10:07;95838.31;;;11.68;100.00
62103;BME280;48077;48.104;11.702;2023-09-07T01:12:31;95851.59;;;11.75;100.00
62103;BME280;48077;48.104;11.702;2023-09-07T01:14:54;95844.38;;;11.75;100.00
62103;BME280;48077;48.104;11.702;2023-09-07T01:17:18;95840.75;;;11.70;100.00
62103;BME280;48077;48.104;11.702;2023-09-07T01:19:45;95831.56;;;11.66;100.00
62103;BME280;48077;48.104;11.702;2023-09-07T01:22:10;95843.06;;;11.66;100.00
62103;BME280;48077;48.104;11.702;2023-09-07T01:24:35;95847.25;;;11.62;100.00
62103;BME280;48077;48.104;11.702;2023-09-07T01:27:01;95838.75;;;11.53;100.00
62103;BME280;48077;48.104;11.702;2023-09-07T01:29:26;95843.31;;;11.53;100.00
62103;BME280;48077;48.104;11.702;2023-09-07T01:31:52;95833.06;;;11.38;100.00
62103;BME280;48077;48.104;11.702;2023-09-07T01:34:15;95837.44;;;11.32;100.00
62103;BME280;48077;48.104;11.702;2023-09-07T01:36:39;95843.84;;;11.31;100.00
62103;BME280;48077;48.104;11.702;2023-09-07T01:39:04;95846.38;;;11.26;100.00
62103;BME280;48077;48.104;11.702;2023-09-07T01:41:31;95844.97;;;11.24;100.00
62103;BME280;48077;48.104;11.702;2023-09-07T01:43:54;95838.91;;;11.17;100.00
62103;BME280;48077;48.104;11.702;2023-09-07T01:46:18;95847.50;;;11.19;100.00
62103;BME280;48077;48.104;11.702;2023-09-07T01:48:42;95850.84;;;11.14;100.00
62103;BME280;48077;48.104;11.702;2023-09-07T01:51:05;95825.75;;;11.03;100.00
62103;BME280;48077;48.104;11.702;2023-09-07T01:53:29;95836.00;;;11.06;100.00
62103;BME280;48077;48.104;11.702;2023-09-07T01:55:55;95834.34;;;11.05;100.00
62103;BME280;48077;48.104;11.702;2023-09-07T01:58:19;95826.56;;;11.04;100.00
62103;BME280;48077;48.104;11.702;2023-09-07T02:00:42;95832.97;;;11.03;100.00
62103;BME280;48077;48.104;11.702;2023-09-07T02:03:06;95828.44;;;11.03;100.00
62103;BME280;48077;48.104;11.702;2023-09-07T02:05:29;95829.22;;;11.04;100.00
62103;BME280;48077;48.104;11.702;2023-09-07T02:07:53;95823.63;;;10.93;100.00
62103;BME280;48077;48.104;11.702;2023-09-07T02:10:16;95822.22;;;10.91;100.00
62103;BME280;48077;48.104;11.702;2023-09-07T02:12:42;95818.25;;;10.82;100.00
62103;BME280;48077;48.104;11.702;2023-09-07T02:15:06;95837.44;;;10.90;100.00
62103;BME280;48077;48.104;11.702;2023-09-07T02:17:29;95833.59;;;10.86;100.00
62103;BME280;48077;48.104;11.702;2023-09-07T02:19:53;95825.31;;;10.76;100.00
62103;BME280;48077;48.104;11.702;2023-09-07T02:22:16;95837.38;;;10.79;100.00
62103;BME280;48077;48.104;11.702;2023-09-07T02:24:39;95825.03;;;10.66;100.00
62103;BME280;48077;48.104;11.702;2023-09-07T02:27:03;95830.84;;;10.74;100.00
62103;BME280;48077;48.104;11.702;2023-09-07T02:29:29;95841.09;;;10.78;100.00
62103;BME280;48077;48.104;11.702;2023-09-07T02:31:53;95841.69;;;10.80;100.00
62103;BME280;48077;48.104;11.702;2023-09-07T02:34:16;95847.84;;;10.80;100.00
62103;BME280;48077;48.104;11.702;2023-09-07T02:36:39;95837.25;;;10.73;100.00
62103;BME280;48077;48.104;11.702;2023-09-07T02:39:03;95840.72;;;10.74;100.00
62103;BME280;48077;48.104;11.702;2023-09-07T02:41:27;95831.53;;;10.70;100.00
62103;BME280;48077;48.104;11.702;2023-09-07T02:43:50;95839.16;;;10.66;100.00
62103;BME280;48077;48.104;11.702;2023-09-07T02:46:14;95838.81;;;10.63;100.00
62103;BME280;48077;48.104;11.702;2023-09-07T02:48:38;95818.47;;;10.50;100.00
62103;BME280;48077;48.104;11.702;2023-09-07T02:51:01;95841.13;;;10.59;100.00
62103;BME280;48077;48.104;11.702;2023-09-07T02:53:24;95839.47;;;10.58;100.00
62103;BME280;48077;48.104;11.702;2023-09-07T02:55:48;95834.00;;;10.53;100.00
62103;BME280;48077;48.104;11.702;2023-09-07T02:58:11;95842.00;;;10.53;100.00
62103;BME280;48077;48.104;11.702;2023-09-07T03:00:34;95840.38;;;10.52;100.00
62103;BME280;48077;48.104;11.702;2023-09-07T03:02:58;95838.97;;;10.49;100.00
62103;BME280;48077;48.104;11.702;2023-09-07T03:05:21;95834.31;;;10.45;100.00
62103;BME280;48077;48.104;11.702;2023-09-07T03:07:47;95835.38;;;10.44;100.00
62103;BME280;48077;48.104;11.702;2023-09-07T03:10:11;95835.06;;;10.33;100.00
62103;BME280;48077;48.104;11.702;2023-09-07T03:12:34;95840.41;;;10.33;100.00
62103;BME280;48077;48.104;11.702;2023-09-07T03:14:58;95837.50;;;10.35;100.00
62103;BME280;48077;48.104;11.702;2023-09-07T03:17:21;95827.50;;;10.30;100.00
62103;BME280;48077;48.104;11.702;2023-09-07T03:19:44;95840.75;;;10.37;100.00
62103;BME280;48077;48.104;11.702;2023-09-07T03:22:08;95842.22;;;10.33;100.00
62103;BME280;48077;48.104;11.702;2023-09-07T03:24:32;95828.94;;;10.26;100.00
62103;BME280;48077;48.104;11.702;2023-09-07T03:26:55;95837.53;;;10.28;100.00
62103;BME280;48077;48.104;11.702;2023-09-07T03:29:18;95832.41;;;10.27;100.00
62103;BME280;48077;48.104;11.702;2023-09-07T03:31:42;95831.03;;;10.24;100.00
62103;BME280;48077;48.104;11.702;2023-09-07T03:34:05;95834.81;;;10.17;100.00
62103;BME280;48077;48.104;11.702;2023-09-07T03:36:31;95841.97;;;10.16;100.00
62103;BME280;48077;48.104;11.702;2023-09-07T03:38:54;95839.19;;;10.11;100.00
62103;BME280;48077;48.104;11.702;2023-09-07T03:41:17;95851.09;;;10.08;100.00
62103;BME280;48077;48.104;11.702;2023-09-07T03:43:41;95842.13;;;10.03;100.00
62103;BME280;48077;48.104;11.702;2023-09-07T03:46:05;95842.56;;;10.00;100.00
62103;BME280;48077;48.104;11.702;2023-09-07T03:48:28;95844.25;;;9.94;100.00
62103;BME280;48077;48.104;11.702;2023-09-07T03:50:52;95847.28;;;9.98;100.00
62103;BME280;48077;48.104;11.702;2023-09-07T03:53:15;95854.03;;;10.00;100.00
62103;BME280;48077;48.104;11.702;2023-09-07T03:55:40;95851.38;;;10.00;100.00
62103;BME280;48077;48.104;11.702;2023-09-07T03:58:04;95846.41;;;10.04;100.00
62103;BME280;48077;48.104;11.702;2023-09-07T04:00:27;95833.00;;;9.92;100.00
62103;BME280;48077;48.104;11.702;2023-09-07T04:02:51;95836.69;;;9.91;100.00
62103;BME280;48077;48.104;11.702;2023-09-07T04:05:14;95849.00;;;9.92;100.00
62103;BME280;48077;48.104;11.702;2023-09-07T04:07:38;95847.56;;;9.89;100.00
62103;BME280;48077;48.104;11.702;2023-09-07T04:10:02;95832.16;;;9.73;100.00
62103;BME280;48077;48.104;11.702;2023-09-07T04:12:25;95846.44;;;9.79;100.00
62103;BME280;48077;48.104;11.702;2023-09-07T04:14:49;95858.56;;;9.75;100.00
62103;BME280;48077;48.104;11.702;2023-09-07T04:17:12;95853.69;;;9.71;100.00
62103;BME280;48077;48.104;11.702;2023-09-07T04:19:36;95862.09;;;9.68;100.00
62103;BME280;48077;48.104;11.702;2023-09-07T04:22:00;95847.16;;;9.67;100.00
62103;BME280;48077;48.104;11.702;2023-09-07T04:24:23;95839.44;;;9.59;100.00
62103;BME280;48077;48.104;11.702;2023-09-07T04:26:47;95850.03;;;9.66;100.00
62103;BME280;48077;48.104;11.702;2023-09-07T04:29:10;95852.91;;;9.64;100.00
62103;BME280;48077;48.104;11.702;2023-09-07T04:31:36;95838.31;;;9.48;100.00
62103;BME280;48077;48.104;11.702;2023-09-07T04:33:59;95857.69;;;9.56;100.00
62103;BME280;48077;48.104;11.702;2023-09-07T04:36:23;95859.75;;;9.53;100.00
62103;BME280;48077;48.104;11.702;2023-09-07T04:38:46;95864.22;;;9.60;100.00
62103;BME280;48077;48.104;11.702;2023-09-07T04:41:11;95862.00;;;9.57;100.00
62103;BME280;48077;48.104;11.702;2023-09-07T04:43:35;95838.13;;;9.43;100.00
62103;BME280;48077;48.104;11.702;2023-09-07T04:45:59;95864.66;;;9.57;100.00
62103;BME280;48077;48.104;11.702;2023-09-07T04:48:22;95860.22;;;9.50;100.00
62103;BME280;48077;48.104;11.702;2023-09-07T04:50:45;95865.69;;;9.56;100.00
62103;BME280;48077;48.104;11.702;2023-09-07T04:53:09;95872.88;;;9.55;100.00
62103;BME280;48077;48.104;11.702;2023-09-07T04:55:37;95882.91;;;9.53;100.00
62103;BME280;48077;48.104;11.702;2023-09-07T04:58:00;95863.13;;;9.42;100.00
62103;BME280;48077;48.104;11.702;2023-09-07T05:00:24;95878.84;;;9.50;100.00
62103;BME280;48077;48.104;11.702;2023-09-07T05:02:47;95871.22;;;9.54;100.00
62103;BME280;48077;48.104;11.702;2023-09-07T05:05:10;95875.91;;;9.59;100.00
62103;BME280;48077;48.104;11.702;2023-09-07T05:07:34;95870.00;;;9.57;100.00
62103;BME280;48077;48.104;11.702;2023-09-07T05:09:57;95857.75;;;9.49;100.00
62103;BME280;48077;48.104;11.702;2023-09-07T05:12:21;95874.88;;;9.60;100.00
62103;BME280;48077;48.104;11.702;2023-09-07T05:14:44;95876.53;;;9.61;100.00
62103;BME280;48077;48.104;11.702;2023-09-07T05:17:08;95876.06;;;9.64;100.00
62103;BME280;48077;48.104;11.702;2023-09-07T05:19:31;95869.34;;;9.61;100.00
62103;BME280;48077;48.104;11.702;2023-09-07T05:21:54;95874.59;;;9.68;100.00
62103;BME280;48077;48.104;11.702;2023-09-07T05:24:18;95865.97;;;9.72;100.00
62103;BME280;48077;48.104;11.702;2023-09-07T05:26:42;95861.88;;;9.70;100.00
62103;BME280;48077;48.104;11.702;2023-09-07T05:29:05;95874.28;;;9.83;100.00
62103;BME280;48077;48.104;11.702;2023-09-07T05:31:28;95869.53;;;9.85;100.00
62103;BME280;48077;48.104;11.702;2023-09-07T05:33:52;95876.50;;;9.86;100.00
62103;BME280;48077;48.104;11.702;2023-09-07T05:36:15;95881.56;;;9.94;100.00
62103;BME280;48077;48.104;11.702;2023-09-07T05:38:39;95886.63;;;10.02;100.00
62103;BME280;48077;48.104;11.702;2023-09-07T05:41:02;95874.91;;;10.03;100.00
62103;BME280;48077;48.104;11.702;2023-09-07T05:43:26;95883.81;;;10.16;100.00
62103;BME280;48077;48.104;11.702;2023-09-07T05:45:50;95881.38;;;10.14;100.00
62103;BME280;48077;48.104;11.702;2023-09-07T05:48:13;95890.72;;;10.23;100.00
62103;BME280;48077;48.104;11.702;2023-09-07T05:50:40;95897.19;;;10.34;100.00
62103;BME280;48077;48.104;11.702;2023-09-07T05:53:04;95902.25;;;10.42;100.00
62103;BME280;48077;48.104;11.702;2023-09-07T05:55:28;95888.69;;;10.44;100.00
62103;BME280;48077;48.104;11.702;2023-09-07T05:57:54;95886.63;;;10.46;100.00
62103;BME280;48077;48.104;11.702;2023-09-07T06:00:17;95903.19;;;10.66;100.00
62103;BME280;48077;48.104;11.702;2023-09-07T06:02:41;95899.41;;;10.74;100.00
62103;BME280;48077;48.104;11.702;2023-09-07T06:05:05;95898.06;;;10.83;100.00
62103;BME280;48077;48.104;11.702;2023-09-07T06:07:28;95904.75;;;10.92;100.00
62103;BME280;48077;48.104;11.702;2023-09-07T06:09:51;95903.97;;;11.04;100.00
62103;BME280;48077;48.104;11.702;2023-09-07T06:12:15;95902.41;;;11.14;100.00
62103;BME280;48077;48.104;11.702;2023-09-07T06:14:38;95910.91;;;11.23;100.00
62103;BME280;48077;48.104;11.702;2023-09-07T06:17:02;95890.38;;;11.24;100.00
62103;BME280;48077;48.104;11.702;2023-09-07T06:19:25;95903.44;;;11.44;100.00
62103;BME280;48077;48.104;11.702;2023-09-07T06:21:48;95894.16;;;11.46;100.00
62103;BME280;48077;48.104;11.702;2023-09-07T06:24:12;95893.13;;;11.59;100.00
62103;BME280;48077;48.104;11.702;2023-09-07T06:26:35;95895.16;;;11.75;100.00
62103;BME280;48077;48.104;11.702;2023-09-07T06:28:59;95903.09;;;11.94;100.00
62103;BME280;48077;48.104;11.702;2023-09-07T06:31:22;95876.81;;;11.91;100.00
62103;BME280;48077;48.104;11.702;2023-09-07T06:33:46;95908.47;;;12.18;100.00
62103;BME280;48077;48.104;11.702;2023-09-07T06:36:09;95898.34;;;12.31;100.00
62103;BME280;48077;48.104;11.702;2023-09-07T06:38:32;95896.00;;;12.47;100.00
62103;BME280;48077;48.104;11.702;2023-09-07T06:40:56;95899.00;;;12.62;100.00
62103;BME280;48077;48.104;11.702;2023-09-07T06:43:19;95891.75;;;12.74;100.00
62103;BME280;48077;48.104;11.702;2023-09-07T06:45:45;95899.41;;;12.94;100.00
62103;BME280;48077;48.104;11.702;2023-09-07T06:48:08;95889.69;;;13.05;100.00
62103;BME280;48077;48.104;11.702;2023-09-07T06:50:31;95894.38;;;13.27;100.00
62103;BME280;48077;48.104;11.702;2023-09-07T06:52:55;95880.16;;;13.38;100.00
62103;BME280;48077;48.104;11.702;2023-09-07T06:55:18;95888.81;;;13.57;100.00
62103;BME280;48077;48.104;11.702;2023-09-07T06:57:41;95900.34;;;13.74;100.00
62103;BME280;48077;48.104;11.702;2023-09-07T07:00:05;95899.13;;;13.82;100.00
62103;BME280;48077;48.104;11.702;2023-09-07T07:02:30;95899.38;;;13.97;100.00
62103;BME280;48077;48.104;11.702;2023-09-07T07:04:54;95905.72;;;14.08;100.00
62103;BME280;48077;48.104;11.702;2023-09-07T07:07:18;95898.66;;;14.19;100.00
62103;BME280;48077;48.104;11.702;2023-09-07T07:09:41;95890.66;;;14.24;100.00
62103;BME280;48077;48.104;11.702;2023-09-07T07:12:05;95890.63;;;14.41;100.00
62103;BME280;48077;48.104;11.702;2023-09-07T07:14:28;95894.94;;;14.59;100.00
62103;BME280;48077;48.104;11.702;2023-09-07T07:16:51;95895.09;;;14.69;100.00
62103;BME280;48077;48.104;11.702;2023-09-07T07:19:17;95890.84;;;14.73;100.00
62103;BME280;48077;48.104;11.702;2023-09-07T07:21:40;95901.53;;;14.90;100.00
62103;BME280;48077;48.104;11.702;2023-09-07T07:24:04;95899.75;;;15.01;100.00
62103;BME280;48077;48.104;11.702;2023-09-07T07:26:30;95887.22;;;15.07;100.00
62103;BME280;48077;48.104;11.702;2023-09-07T07:28:53;95903.00;;;15.25;100.00
62103;BME280;48077;48.104;11.702;2023-09-07T07:31:17;95913.03;;;15.35;100.00
62103;BME280;48077;48.104;11.702;2023-09-07T07:33:40;95910.66;;;15.38;100.00
62103;BME280;48077;48.104;11.702;2023-09-07T07:36:04;95919.94;;;15.53;100.00
62103;BME280;48077;48.104;11.702;2023-09-07T07:38:28;95917.75;;;15.72;100.00
62103;BME280;48077;48.104;11.702;2023-09-07T07:40:51;95917.59;;;15.84;100.00
62103;BME280;48077;48.104;11.702;2023-09-07T07:43:16;95912.72;;;16.13;100.00
62103;BME280;48077;48.104;11.702;2023-09-07T07:45:39;95908.94;;;16.09;100.00
62103;BME280;48077;48.104;11.702;2023-09-07T07:48:03;95908.16;;;16.13;100.00
62103;BME280;48077;48.104;11.702;2023-09-07T07:50:28;95911.22;;;16.27;100.00
62103;BME280;48077;48.104;11.702;2023-09-07T07:52:51;95915.59;;;16.38;100.00
62103;BME280;48077;48.104;11.702;2023-09-07T07:55:15;95918.28;;;16.38;100.00
62103;BME280;48077;48.104;11.702;2023-09-07T07:57:38;95914.38;;;16.56;100.00
62103;BME280;48077;48.104;11.702;2023-09-07T08:00:03;95918.16;;;16.61;100.00
62103;BME280;48077;48.104;11.702;2023-09-07T08:02:27;95912.84;;;16.71;100.00
62103;BME280;48077;48.104;11.702;2023-09-07T08:04:51;95906.19;;;16.84;100.00
62103;BME280;48077;48.104;11.702;2023-09-07T08:07:14;95910.03;;;17.03;100.00
62103;BME280;48077;48.104;11.702;2023-09-07T08:09:44;95904.16;;;17.06;100.00
62103;BME280;48077;48.104;11.702;2023-09-07T08:12:08;95890.69;;;17.06;100.00
62103;BME280;48077;48.104;11.702;2023-09-07T08:14:31;95893.66;;;17.20;100.00
62103;BME280;48077;48.104;11.702;2023-09-07T08:16:56;95896.97;;;17.37;100.00
62103;BME280;48077;48.104;11.702;2023-09-07T08:19:19;95882.66;;;17.37;100.00
62103;BME280;48077;48.104;11.702;2023-09-07T08:21:42;95899.44;;;17.54;100.00
62103;BME280;48077;48.104;11.702;2023-09-07T08:24:08;95902.44;;;17.73;100.00
62103;BME280;48077;48.104;11.702;2023-09-07T08:26:32;95899.47;;;17.85;99.74
62103;BME280;48077;48.104;11.702;2023-09-07T08:28:55;95893.03;;;17.86;100.00
62103;BME280;48077;48.104;11.702;2023-09-07T08:31:19;95898.44;;;17.96;100.00
62103;BME280;48077;48.104;11.702;2023-09-07T08:33:45;95886.56;;;18.13;97.23
62103;BME280;48077;48.104;11.702;2023-09-07T08:36:08;95901.38;;;18.20;98.36
62103;BME280;48077;48.104;11.702;2023-09-07T08:38:31;95895.19;;;18.15;98.19
62103;BME280;48077;48.104;11.702;2023-09-07T08:40:55;95903.81;;;18.22;97.61
62103;BME280;48077;48.104;11.702;2023-09-07T08:43:21;95904.09;;;18.26;97.28
62103;BME280;48077;48.104;11.702;2023-09-07T08:46:13;95901.13;;;18.37;97.34
62103;BME280;48077;48.104;11.702;2023-09-07T08:48:37;95895.66;;;18.48;96.94
62103;BME280;48077;48.104;11.702;2023-09-07T08:51:01;95898.66;;;18.56;97.20
62103;BME280;48077;48.104;11.702;2023-09-07T08:53:25;95901.03;;;18.68;95.41
62103;BME280;48077;48.104;11.702;2023-09-07T08:55:48;95893.47;;;18.80;93.92
62103;BME280;48077;48.104;11.702;2023-09-07T08:58:12;95887.47;;;18.99;93.66
62103;BME280;48077;48.104;11.702;2023-09-07T09:00:37;95902.53;;;19.10;93.11
62103;BME280;48077;48.104;11.702;2023-09-07T09:03:01;95890.13;;;19.09;90.63
62103;BME280;48077;48.104;11.702;2023-09-07T09:05:28;95897.03;;;19.31;90.90
62103;BME280;48077;48.104;11.702;2023-09-07T09:08:01;95888.88;;;19.46;90.18
62103;BME280;48077;48.104;11.702;2023-09-07T09:10:24;95888.22;;;19.65;89.75
62103;BME280;48077;48.104;11.702;2023-09-07T09:12:48;95888.97;;;19.75;90.88
62103;BME280;48077;48.104;11.702;2023-09-07T09:15:11;95888.31;;;19.94;88.62
62103;BME280;48077;48.104;11.702;2023-09-07T09:17:34;95889.03;;;20.05;88.04
62103;BME280;48077;48.104;11.702;2023-09-07T09:19:58;95884.09;;;20.12;87.40
62103;BME280;48077;48.104;11.702;2023-09-07T09:22:22;95891.28;;;20.27;87.38
62103;BME280;48077;48.104;11.702;2023-09-07T09:24:50;95888.47;;;20.37;86.95
62103;BME280;48077;48.104;11.702;2023-09-07T09:27:13;95881.28;;;20.51;85.35
62103;BME280;48077;48.104;11.702;2023-09-07T09:29:37;95882.03;;;20.62;84.92
62103;BME280;48077;48.104;11.702;2023-09-07T09:32:03;95891.56;;;20.84;83.76
62103;BME280;48077;48.104;11.702;2023-09-07T09:34:32;95872.91;;;20.77;83.09
62103;BME280;48077;48.104;11.702;2023-09-07T09:36:55;95872.25;;;20.90;83.61
62103;BME280;48077;48.104;11.702;2023-09-07T09:39:23;95875.91;;;20.99;83.84
62103;BME280;48077;48.104;11.702;2023-09-07T09:41:47;95866.34;;;21.07;82.76
62103;BME280;48077;48.104;11.702;2023-09-07T09:44:10;95868.84;;;21.22;82.88
62103;BME280;48077;48.104;11.702;2023-09-07T09:46:35;95868.19;;;21.31;80.08
62103;BME280;48077;48.104;11.702;2023-09-07T09:49:00;95869.47;;;21.38;80.39
62103;BME280;48077;48.104;11.702;2023-09-07T09:51:24;95866.88;;;21.52;79.33
62103;BME280;48077;48.104;11.702;2023-09-07T09:53:48;95876.59;;;21.72;76.88
62103;BME280;48077;48.104;11.702;2023-09-07T09:56:12;95863.63;;;21.69;77.99
62103;BME280;48077;48.104;11.702;2023-09-07T09:58:36;95861.63;;;21.75;78.31
62103;BME280;48077;48.104;11.702;2023-09-07T10:01:00;95870.22;;;21.82;77.72
62103;BME280;48077;48.104;11.702;2023-09-07T10:03:26;95868.06;;;21.98;78.24
62103;BME280;48077;48.104;11.702;2023-09-07T10:05:51;95869.81;;;22.08;77.30
62103;BME280;48077;48.104;11.702;2023-09-07T10:08:16;95874.16;;;22.22;75.07
62103;BME280;48077;48.104;11.702;2023-09-07T10:10:46;95868.91;;;22.31;75.72
62103;BME280;48077;48.104;11.702;2023-09-07T10:13:14;95876.34;;;22.39;76.06
62103;BME280;48077;48.104;11.702;2023-09-07T10:15:37;95864.22;;;22.51;74.49
62103;BME280;48077;48.104;11.702;2023-09-07T10:18:03;95863.91;;;22.66;74.36
62103;BME280;48077;48.104;11.702;2023-09-07T10:20:27;95862.81;;;22.81;73.47
62103;BME280;48077;48.104;11.702;2023-09-07T10:22:50;95856.47;;;22.99;72.27
62103;BME280;48077;48.104;11.702;2023-09-07T10:25:24;95866.88;;;23.25;71.80
62103;BME280;48077;48.104;11.702;2023-09-07T10:27:49;95862.81;;;23.22;71.22
62103;BME280;48077;48.104;11.702;2023-09-07T10:30:12;95852.44;;;23.24;71.85
62103;BME280;48077;48.104;11.702;2023-09-07T10:32:40;95864.72;;;23.36;70.40
62103;BME280;48077;48.104;11.702;2023-09-07T10:35:12;95857.84;;;23.52;69.45
62103;BME280;48077;48.104;11.702;2023-09-07T10:37:35;95862.72;;;23.64;69.64
62103;BME280;48077;48.104;11.702;2023-09-07T10:39:59;95854.88;;;23.76;68.94
62103;BME280;48077;48.104;11.702;2023-09-07T10:42:26;95848.00;;;23.79;68.48
62103;BME280;48077;48.104;11.702;2023-09-07T10:44:49;95853.25;;;23.98;66.39
62103;BME280;48077;48.104;11.702;2023-09-07T10:47:13;95849.72;;;23.97;66.80
62103;BME280;48077;48.104;11.702;2023-09-07T10:49:37;95838.03;;;23.97;67.54
62103;BME280;48077;48.104;11.702;2023-09-07T10:52:00;95839.13;;;24.18;67.88
62103;BME280;48077;48.104;11.702;2023-09-07T10:54:24;95854.16;;;24.38;65.34
62103;BME280;48077;48.104;11.702;2023-09-07T10:56:49;95853.34;;;24.60;63.79
62103;BME280;48077;48.104;11.702;2023-09-07T10:59:13;95858.34;;;24.67;63.68
62103;BME280;48077;48.104;11.702;2023-09-07T11:01:37;95850.88;;;24.81;64.39
62103;BME280;48077;48.104;11.702;2023-09-07T11:04:00;95851.91;;;25.03;63.47
62103;BME280;48077;48.104;11.702;2023-09-07T11:06:24;95846.03;;;25.27;61.96
62103;BME280;48077;48.104;11.702;2023-09-07T11:08:47;95838.84;;;25.40;60.12
62103;BME280;48077;48.104;11.702;2023-09-07T11:11:11;95838.38;;;25.47;60.40
62103;BME280;48077;48.104;11.702;2023-09-07T11:13:34;95841.91;;;25.64;60.92
62103;BME280;48077;48.104;11.702;2023-09-07T11:15:58;95837.56;;;25.81;60.20
62103;BME280;48077;48.104;11.702;2023-09-07T11:18:22;95828.94;;;25.96;59.86
62103;BME280;48077;48.104;11.702;2023-09-07T11:20:46;95831.94;;;26.12;58.47
62103;BME280;48077;48.104;11.702;2023-09-07T11:23:10;95842.41;;;26.19;60.24
62103;BME280;48077;48.104;11.702;2023-09-07T11:25:38;95844.63;;;26.34;59.95
62103;BME280;48077;48.104;11.702;2023-09-07T11:28:03;95839.44;;;26.50;57.71
62103;BME280;48077;48.104;11.702;2023-09-07T11:30:26;95840.69;;;26.61;58.60
62103;BME280;48077;48.104;11.702;2023-09-07T11:32:49;95835.63;;;26.81;56.57
62103;BME280;48077;48.104;11.702;2023-09-07T11:35:13;95839.56;;;27.01;57.58
62103;BME280;48077;48.104;11.702;2023-09-07T11:37:36;95843.94;;;27.32;57.92
62103;BME280;48077;48.104;11.702;2023-09-07T11:40:01;95826.72;;;27.52;56.19
62103;BME280;48077;48.104;11.702;2023-09-07T11:42:27;95840.91;;;27.54;54.97
62103;BME280;48077;48.104;11.702;2023-09-07T11:44:50;95834.19;;;27.64;53.59
62103;BME280;48077;48.104;11.702;2023-09-07T11:47:14;95831.84;;;27.75;53.75
62103;BME280;48077;48.104;11.702;2023-09-07T11:49:37;95821.13;;;27.91;52.05
62103;BME280;48077;48.104;11.702;2023-09-07T11:52:01;95829.72;;;28.01;53.06
62103;BME280;48077;48.104;11.702;2023-09-07T11:54:24;95820.28;;;28.11;52.69
62103;BME280;48077;48.104;11.702;2023-09-07T11:56:47;95828.09;;;28.21;51.72
62103;BME280;48077;48.104;11.702;2023-09-07T11:59:11;95814.88;;;28.36;51.72
62103;BME280;48077;48.104;11.702;2023-09-07T12:01:34;95823.81;;;28.45;50.86
62103;BME280;48077;48.104;11.702;2023-09-07T12:03:58;95814.69;;;28.53;49.16
62103;BME280;48077;48.104;11.702;2023-09-07T12:06:21;95830.03;;;28.54;50.50
62103;BME280;48077;48.104;11.702;2023-09-07T12:09:03;95819.19;;;28.70;50.29
62103;BME280;48077;48.104;11.702;2023-09-07T12:11:27;95812.78;;;28.91;51.05
62103;BME280;48077;48.104;11.702;2023-09-07T12:13:50;95816.00;;;29.05;49.88
62103;BME280;48077;48.104;11.702;2023-09-07T12:16:14;95820.94;;;29.24;48.06
62103;BME280;48077;48.104;11.702;2023-09-07T12:18:38;95819.44;;;29.26;45.91
62103;BME280;48077;48.104;11.702;2023-09-07T12:21:01;95809.81;;;29.08;47.00
62103;BME280;48077;48.104;11.702;2023-09-07T12:23:25;95823.56;;;29.20;47.88
62103;BME280;48077;48.104;11.702;2023-09-07T12:25:48;95815.09;;;29.13;46.02
62103;BME280;48077;48.104;11.702;2023-09-07T12:28:14;95816.09;;;29.33;46.56
62103;BME280;48077;48.104;11.702;2023-09-07T12:30:39;95810.13;;;29.43;45.24
62103;BME280;48077;48.104;11.702;2023-09-07T12:33:03;95813.91;;;29.39;46.32